createdAt,value
2017-05-21T00:00:48.619Z,101916.77
2017-05-21T00:03:15.462Z,101920.52
2017-05-21T00:05:41.832Z,101921.52
2017-05-21T00:08:09.767Z,101923.38
2017-05-21T00:10:36.777Z,101924.56
2017-05-21T00:13:03.911Z,101922.52
2017-05-21T00:15:30.875Z,101924.61
2017-05-21T00:17:58.057Z,101926.10
2017-05-21T00:20:24.577Z,101928.36
2017-05-21T00:22:51.067Z,101924.28
2017-05-21T00:25:17.434Z,101933.35
2017-05-21T00:27:43.789Z,101935.78
2017-05-21T00:30:10.137Z,101929.75
2017-05-21T00:32:36.469Z,101927.73
2017-05-21T00:35:02.853Z,101926.48
2017-05-21T00:37:29.233Z,101936.88
2017-05-21T00:39:55.580Z,101930.07
2017-05-21T00:42:22.716Z,101930.90
2017-05-21T00:44:49.792Z,101934.33
2017-05-21T00:47:16.304Z,101929.05
2017-05-21T00:49:43.355Z,101937.77
2017-05-21T00:52:09.690Z,101929.35
2017-05-21T00:54:36.044Z,101939.39
2017-05-21T00:57:02.407Z,101938.06
2017-05-21T00:59:28.804Z,101937.26
2017-05-21T01:01:55.182Z,101936.93
2017-05-21T01:04:21.543Z,101929.02
2017-05-21T01:06:47.879Z,101936.62
2017-05-21T01:09:14.216Z,101940.76
2017-05-21T01:11:40.564Z,101931.56
2017-05-21T01:14:06.991Z,101932.02
2017-05-21T01:16:33.340Z,101931.59
2017-05-21T01:18:59.698Z,101925.66
2017-05-21T01:21:26.854Z,101940.73
2017-05-21T01:23:53.261Z,101938.78
2017-05-21T01:26:19.625Z,101941.42
2017-05-21T01:28:45.959Z,101939.15
2017-05-21T01:31:12.326Z,101942.80
2017-05-21T01:33:38.690Z,101937.44
2017-05-21T01:36:05.080Z,101937.91
2017-05-21T01:38:31.445Z,101942.55
2017-05-21T01:40:57.827Z,101938.41
2017-05-21T01:43:24.226Z,101947.91
2017-05-21T01:45:50.633Z,101935.83
2017-05-21T01:48:17.038Z,101950.21
2017-05-21T01:50:43.469Z,101943.95
2017-05-21T01:53:09.814Z,101940.52
2017-05-21T01:55:36.170Z,101941.06
2017-05-21T01:58:02.520Z,101944.19
2017-05-21T02:00:28.863Z,101938.91
2017-05-21T02:02:55.270Z,101942.89
2017-05-21T02:05:21.621Z,101942.28
2017-05-21T02:07:47.966Z,101939.09
2017-05-21T02:10:14.328Z,101938.84
2017-05-21T02:12:40.680Z,101943.05
2017-05-21T02:15:07.046Z,101943.01
2017-05-21T02:17:33.989Z,101942.73
2017-05-21T02:20:00.338Z,101943.70
2017-05-21T02:22:26.690Z,101945.95
2017-05-21T02:24:53.054Z,101951.75
2017-05-21T02:27:19.517Z,101956.98
2017-05-21T02:29:45.892Z,101952.60
2017-05-21T02:32:12.242Z,101956.91
2017-05-21T02:34:38.595Z,101954.38
2017-05-21T02:37:04.941Z,101952.95
2017-05-21T02:39:32.073Z,101951.17
2017-05-21T02:41:58.435Z,101949.83
2017-05-21T02:44:24.818Z,101952.31
2017-05-21T02:46:51.158Z,101957.54
2017-05-21T02:49:17.515Z,101955.17
2017-05-21T02:51:43.882Z,101956.71
2017-05-21T02:54:10.212Z,101949.80
2017-05-21T02:56:36.608Z,101954.86
2017-05-21T02:59:02.993Z,101955.00
2017-05-21T03:01:29.349Z,101958.02
2017-05-21T03:03:55.679Z,101957.38
2017-05-21T03:06:22.045Z,101953.30
2017-05-21T03:08:48.503Z,101955.16
2017-05-21T03:11:15.159Z,101961.34
2017-05-21T03:13:41.501Z,101959.21
2017-05-21T03:16:07.839Z,101962.66
2017-05-21T03:18:34.203Z,101954.02
2017-05-21T03:21:00.551Z,101953.98
2017-05-21T03:23:26.910Z,101959.13
2017-05-21T03:25:53.289Z,101957.48
2017-05-21T03:28:19.651Z,101960.04
2017-05-21T03:30:45.982Z,101956.41
2017-05-21T03:33:12.358Z,101958.55
2017-05-21T03:35:39.178Z,101960.83
2017-05-21T03:38:05.553Z,101960.75
2017-05-21T03:40:31.905Z,101955.84
2017-05-21T03:42:58.268Z,101965.89
2017-05-21T03:45:24.721Z,101960.73
2017-05-21T03:47:51.071Z,101962.47
2017-05-21T03:50:17.415Z,101961.62
2017-05-21T03:52:43.773Z,101959.27
2017-05-21T03:55:10.134Z,101972.97
2017-05-21T03:57:36.518Z,101967.29
2017-05-21T04:00:02.923Z,101964.55
2017-05-21T04:02:29.426Z,101966.97
2017-05-21T04:04:55.822Z,101976.55
2017-05-21T04:07:22.173Z,101975.95
2017-05-21T04:09:48.547Z,101987.48
2017-05-21T04:12:14.913Z,101984.77
2017-05-21T04:14:41.256Z,101985.70
2017-05-21T04:17:07.735Z,101980.52
2017-05-21T04:19:34.085Z,101985.19
2017-05-21T04:22:00.437Z,101983.45
2017-05-21T04:24:26.790Z,101984.92
2017-05-21T04:26:53.154Z,101977.55
2017-05-21T04:29:19.542Z,101977.43
2017-05-21T04:31:45.918Z,101976.36
2017-05-21T04:34:12.259Z,101985.87
2017-05-21T04:36:38.911Z,101981.67
2017-05-21T04:39:05.251Z,101991.27
2017-05-21T04:41:31.672Z,101988.99
2017-05-21T04:43:58.019Z,101989.12
2017-05-21T04:46:24.360Z,101985.13
2017-05-21T04:48:50.711Z,101986.03
2017-05-21T04:51:17.046Z,101988.05
2017-05-21T04:53:43.405Z,101990.20
2017-05-21T04:56:09.743Z,101990.31
2017-05-21T04:58:36.081Z,101989.47
2017-05-21T05:01:02.447Z,101995.33
2017-05-21T05:03:28.793Z,101995.77
2017-05-21T05:05:55.186Z,101998.41
2017-05-21T05:08:21.553Z,101989.13
2017-05-21T05:10:47.958Z,101991.48
2017-05-21T05:13:14.296Z,101999.71
2017-05-21T05:15:40.664Z,102001.59
2017-05-21T05:18:07.026Z,102000.50
2017-05-21T05:20:33.431Z,102004.30
2017-05-21T05:22:59.782Z,102007.77
2017-05-21T05:25:26.224Z,102003.91
2017-05-21T05:27:52.555Z,102006.33
2017-05-21T05:30:18.874Z,102009.69
2017-05-21T05:32:45.218Z,102006.48
2017-05-21T05:35:11.587Z,102006.92
2017-05-21T05:37:37.954Z,102006.35
2017-05-21T05:40:04.302Z,102008.65
2017-05-21T05:42:30.634Z,102006.92
2017-05-21T05:44:57.024Z,102009.00
2017-05-21T05:47:23.357Z,102011.56
2017-05-21T05:49:49.714Z,102005.02
2017-05-21T05:52:17.186Z,102007.03
2017-05-21T05:54:43.535Z,102004.02
2017-05-21T05:57:09.940Z,102009.37
2017-05-21T05:59:36.306Z,102007.91
2017-05-21T06:02:02.664Z,102007.77
2017-05-21T06:04:29.011Z,102015.27
2017-05-21T06:06:55.376Z,102013.19
2017-05-21T06:09:21.719Z,102020.41
2017-05-21T06:11:48.071Z,102019.78
2017-05-21T06:14:14.445Z,102026.28
2017-05-21T06:16:40.797Z,102021.21
2017-05-21T06:19:07.130Z,102014.30
2017-05-21T06:21:33.483Z,102018.09
2017-05-21T06:23:59.872Z,102019.58
2017-05-21T06:26:26.254Z,102012.11
2017-05-21T06:28:52.615Z,102015.64
2017-05-21T06:31:18.985Z,102015.80
2017-05-21T06:33:45.343Z,102020.63
2017-05-21T06:36:11.719Z,102018.00
2017-05-21T06:38:38.083Z,102019.19
2017-05-21T06:41:04.453Z,102022.41
2017-05-21T06:43:30.824Z,102023.57
2017-05-21T06:45:57.176Z,102022.12
2017-05-21T06:48:23.524Z,102025.09
2017-05-21T06:50:49.921Z,102025.02
2017-05-21T06:53:16.305Z,102022.84
2017-05-21T06:55:42.654Z,102031.03
2017-05-21T06:58:09.017Z,102021.19
2017-05-21T07:00:35.379Z,102022.50
2017-05-21T07:03:01.760Z,102026.24
2017-05-21T07:05:28.120Z,102024.89
2017-05-21T07:07:54.505Z,102031.09
2017-05-21T07:10:20.874Z,102031.48
2017-05-21T07:12:47.257Z,102028.81
2017-05-21T07:15:13.606Z,102027.87
2017-05-21T07:17:41.240Z,102034.53
2017-05-21T07:20:07.560Z,102030.17
2017-05-21T07:22:33.890Z,102033.02
2017-05-21T07:25:00.221Z,102039.87
2017-05-21T07:27:26.564Z,102028.72
2017-05-21T07:29:52.905Z,102033.94
2017-05-21T07:32:19.249Z,102037.55
2017-05-21T07:34:45.577Z,102030.22
2017-05-21T07:37:11.911Z,102024.61
2017-05-21T07:39:38.251Z,102027.89
2017-05-21T07:42:04.593Z,102033.77
2017-05-21T07:44:30.937Z,102034.37
2017-05-21T07:46:57.293Z,102037.70
2017-05-21T07:49:23.643Z,102036.53
2017-05-21T07:51:50.001Z,102031.19
2017-05-21T07:54:16.323Z,102031.78
2017-05-21T07:56:42.675Z,102033.48
2017-05-21T07:59:09.046Z,102037.32
2017-05-21T08:01:35.367Z,102037.13
2017-05-21T08:04:01.700Z,102037.84
2017-05-21T08:06:28.067Z,102028.02
2017-05-21T08:08:54.434Z,102026.73
2017-05-21T08:11:20.818Z,102026.58
2017-05-21T08:13:47.168Z,102020.63
2017-05-21T08:16:13.543Z,102024.97
2017-05-21T08:18:39.898Z,102023.53
2017-05-21T08:21:06.230Z,102025.03
2017-05-21T08:23:32.573Z,102028.63
2017-05-21T08:25:58.935Z,102028.20
2017-05-21T08:28:25.283Z,102030.02
2017-05-21T08:30:51.627Z,102025.19
2017-05-21T08:33:18.423Z,102023.48
2017-05-21T08:35:48.749Z,102028.29
2017-05-21T08:38:15.859Z,102022.06
2017-05-21T08:40:42.223Z,102019.11
2017-05-21T08:43:08.620Z,102022.59
2017-05-21T08:45:35.014Z,102020.77
2017-05-21T08:48:01.366Z,102022.26
2017-05-21T08:50:27.734Z,102020.58
2017-05-21T08:52:54.971Z,102018.57
2017-05-21T08:55:22.197Z,102022.28
2017-05-21T08:57:50.254Z,102024.69
2017-05-21T09:00:19.571Z,102023.59
2017-05-21T09:02:48.713Z,102019.75
2017-05-21T09:05:15.993Z,102025.45
2017-05-21T09:07:43.635Z,102025.59
2017-05-21T09:10:10.864Z,102026.55
2017-05-21T09:12:38.308Z,102024.52
2017-05-21T09:15:06.315Z,102027.15
2017-05-21T09:17:34.490Z,102017.81
2017-05-21T09:20:00.895Z,102018.95
2017-05-21T09:22:27.245Z,102021.76
2017-05-21T09:24:53.578Z,102024.62
2017-05-21T09:27:19.932Z,102021.75
2017-05-21T09:29:46.315Z,102015.52
2017-05-21T09:32:12.666Z,102013.77
2017-05-21T09:34:38.994Z,102012.89
2017-05-21T09:37:05.361Z,102008.70
2017-05-21T09:39:31.745Z,102014.83
2017-05-21T09:41:58.092Z,102005.46
2017-05-21T09:44:24.444Z,102006.31
2017-05-21T09:46:50.807Z,102009.20
2017-05-21T09:49:17.164Z,102002.61
2017-05-21T09:51:43.487Z,102004.58
2017-05-21T09:54:09.849Z,102005.60
2017-05-21T09:56:36.228Z,102002.34
2017-05-21T09:59:02.625Z,102007.68
2017-05-21T10:01:29.005Z,101999.95
2017-05-21T10:03:55.364Z,101999.59
2017-05-21T10:06:21.768Z,101994.81
2017-05-21T10:08:48.127Z,102000.38
2017-05-21T10:11:14.482Z,101992.05
2017-05-21T10:13:40.849Z,101988.47
2017-05-21T10:16:07.187Z,101996.16
2017-05-21T10:18:33.560Z,101989.55
2017-05-21T10:20:59.925Z,101991.03
2017-05-21T10:23:26.322Z,101993.95
2017-05-21T10:25:52.690Z,101991.11
2017-05-21T10:28:19.065Z,101983.61
2017-05-21T10:30:45.424Z,101982.66
2017-05-21T10:33:11.792Z,101980.38
2017-05-21T10:35:38.136Z,101979.17
2017-05-21T10:38:04.465Z,101979.11
2017-05-21T10:40:30.888Z,101975.13
2017-05-21T10:42:57.222Z,101974.59
2017-05-21T10:45:23.597Z,101975.22
2017-05-21T10:47:49.948Z,101973.97
2017-05-21T10:50:16.322Z,101974.09
2017-05-21T10:52:42.654Z,101972.22
2017-05-21T10:55:09.001Z,101967.19
2017-05-21T10:57:35.350Z,101968.74
2017-05-21T11:00:01.704Z,101963.03
2017-05-21T11:02:28.072Z,101961.33
2017-05-21T11:04:54.440Z,101956.66
2017-05-21T11:07:20.829Z,101953.34
2017-05-21T11:09:47.173Z,101948.03
2017-05-21T11:12:13.545Z,101947.84
2017-05-21T11:14:39.869Z,101948.30
2017-05-21T11:17:07.465Z,101943.08
2017-05-21T11:19:35.500Z,101952.29
2017-05-21T11:22:01.859Z,101951.45
2017-05-21T11:24:28.202Z,101953.17
2017-05-21T11:26:54.605Z,101946.48
2017-05-21T11:29:20.960Z,101945.84
2017-05-21T11:31:47.302Z,101937.61
2017-05-21T11:34:13.667Z,101936.58
2017-05-21T11:36:40.052Z,101930.86
2017-05-21T11:39:06.375Z,101926.31
2017-05-21T11:41:32.721Z,101923.39
2017-05-21T11:43:59.055Z,101922.34
2017-05-21T11:46:25.399Z,101925.21
2017-05-21T11:48:51.749Z,101919.88
2017-05-21T11:51:18.212Z,101915.09
2017-05-21T11:53:44.572Z,101912.44
2017-05-21T11:56:11.087Z,101910.53
2017-05-21T11:58:37.476Z,101914.47
2017-05-21T12:01:04.311Z,101914.69
2017-05-21T12:03:31.369Z,101904.98
2017-05-21T12:05:57.752Z,101913.27
2017-05-21T12:08:24.082Z,101907.36
2017-05-21T12:10:50.684Z,101913.00
2017-05-21T12:13:17.030Z,101910.25
2017-05-21T12:15:43.353Z,101906.02
2017-05-21T12:18:09.671Z,101908.52
2017-05-21T12:20:36.336Z,101904.92
2017-05-21T12:23:02.645Z,101904.16
2017-05-21T12:25:28.984Z,101902.47
2017-05-21T12:27:55.346Z,101906.14
2017-05-21T12:30:21.765Z,101898.54
2017-05-21T12:32:48.073Z,101892.81
2017-05-21T12:35:14.425Z,101885.17
2017-05-21T12:37:40.790Z,101891.18
2017-05-21T12:40:07.105Z,101878.50
2017-05-21T12:42:34.128Z,101881.06
2017-05-21T12:45:00.522Z,101879.16
2017-05-21T12:47:27.090Z,101880.58
2017-05-21T12:49:53.589Z,101879.29
2017-05-21T12:52:19.950Z,101882.19
2017-05-21T12:54:47.028Z,101873.98
2017-05-21T12:57:13.329Z,101876.80
2017-05-21T12:59:39.822Z,101873.98
2017-05-21T13:02:06.407Z,101867.86
2017-05-21T13:04:32.835Z,101874.25
2017-05-21T13:06:59.241Z,101876.92
2017-05-21T13:09:25.720Z,101860.39
2017-05-21T13:11:52.124Z,101864.17
2017-05-21T13:14:19.188Z,101854.64
2017-05-21T13:16:45.494Z,101857.52
2017-05-21T13:19:12.457Z,101856.36
2017-05-21T13:21:38.813Z,101853.87
2017-05-21T13:24:05.180Z,101854.42
2017-05-21T13:26:31.598Z,101857.22
2017-05-21T13:28:59.139Z,101850.02
2017-05-21T13:31:25.474Z,101852.02
2017-05-21T13:33:51.986Z,101849.80
2017-05-21T13:36:18.541Z,101845.16
2017-05-21T13:38:44.878Z,101835.76
2017-05-21T13:41:11.197Z,101837.41
2017-05-21T13:43:38.178Z,101839.67
2017-05-21T13:46:05.293Z,101834.11
2017-05-21T13:48:31.826Z,101829.51
2017-05-21T13:50:58.632Z,101829.76
2017-05-21T13:53:24.949Z,101831.88
2017-05-21T13:55:51.426Z,101829.63
2017-05-21T13:58:18.064Z,101822.89
2017-05-21T14:00:44.414Z,101825.97
2017-05-21T14:03:10.749Z,101827.45
2017-05-21T14:05:37.622Z,101810.16
2017-05-21T14:08:04.101Z,101817.78
2017-05-21T14:10:30.450Z,101813.72
2017-05-21T14:12:57.007Z,101809.53
2017-05-21T14:15:23.678Z,101802.21
2017-05-21T14:17:50.015Z,101802.69
2017-05-21T14:20:16.506Z,101801.91
2017-05-21T14:22:43.359Z,101793.99
2017-05-21T14:25:09.689Z,101785.94
2017-05-21T14:27:36.027Z,101790.14
2017-05-21T14:30:02.553Z,101785.35
2017-05-21T14:32:29.275Z,101787.56
2017-05-21T14:34:55.626Z,101783.63
2017-05-21T14:37:22.139Z,101784.55
2017-05-21T14:39:48.882Z,101776.51
2017-05-21T14:42:15.392Z,101774.73
2017-05-21T14:44:41.721Z,101771.79
2017-05-21T14:47:08.081Z,101772.91
2017-05-21T14:49:34.400Z,101770.89
2017-05-21T14:52:00.737Z,101765.14
2017-05-21T14:54:27.077Z,101767.22
2017-05-21T14:56:53.411Z,101759.04
2017-05-21T14:59:19.734Z,101756.38
2017-05-21T15:01:46.081Z,101761.54
2017-05-21T15:04:12.409Z,101753.06
2017-05-21T15:06:39.261Z,101745.69
2017-05-21T15:09:05.582Z,101747.03
2017-05-21T15:11:31.950Z,101745.27
2017-05-21T15:13:58.338Z,101743.17
2017-05-21T15:16:24.697Z,101740.00
2017-05-21T15:18:51.109Z,101737.29
2017-05-21T15:21:17.469Z,101733.33
2017-05-21T15:23:43.799Z,101738.02
2017-05-21T15:26:10.194Z,101734.80
2017-05-21T15:28:36.500Z,101732.66
2017-05-21T15:31:02.843Z,101731.09
2017-05-21T15:33:29.167Z,101729.47
2017-05-21T15:35:55.487Z,101728.41
2017-05-21T15:38:21.912Z,101719.13
2017-05-21T15:40:48.279Z,101723.37
2017-05-21T15:43:14.592Z,101719.91
2017-05-21T15:45:40.976Z,101718.59
2017-05-21T15:48:07.325Z,101713.67
2017-05-21T15:50:33.694Z,101712.33
2017-05-21T15:53:00.051Z,101721.39
2017-05-21T15:55:26.400Z,101710.20
2017-05-21T15:57:52.745Z,101711.14
2017-05-21T16:00:19.088Z,101706.09
2017-05-21T16:02:45.999Z,101705.61
2017-05-21T16:05:12.349Z,101699.56
2017-05-21T16:07:38.710Z,101705.38
2017-05-21T16:10:05.052Z,101704.58
2017-05-21T16:12:31.372Z,101696.46
2017-05-21T16:14:57.701Z,101699.09
2017-05-21T16:17:24.010Z,101698.57
2017-05-21T16:19:50.386Z,101687.09
2017-05-21T16:22:16.750Z,101682.11
2017-05-21T16:24:43.071Z,101682.73
2017-05-21T16:27:09.502Z,101681.22
2017-05-21T16:29:35.864Z,101678.52
2017-05-21T16:32:02.220Z,101675.81
2017-05-21T16:34:28.532Z,101671.66
2017-05-21T16:36:54.865Z,101674.83
2017-05-21T16:39:21.254Z,101670.55
2017-05-21T16:41:47.694Z,101671.26
2017-05-21T16:44:14.056Z,101669.55
2017-05-21T16:46:40.390Z,101668.62
2017-05-21T16:49:06.729Z,101664.34
2017-05-21T16:51:33.056Z,101664.31
2017-05-21T16:53:59.371Z,101665.59
2017-05-21T16:56:26.128Z,101659.77
2017-05-21T16:58:52.489Z,101659.55
2017-05-21T17:01:19.010Z,101659.08
2017-05-21T17:03:45.334Z,101656.08
2017-05-21T17:06:11.667Z,101651.86
2017-05-21T17:08:38.072Z,101649.73
2017-05-21T17:11:04.437Z,101652.05
2017-05-21T17:13:30.763Z,101648.50
2017-05-21T17:15:57.134Z,101646.02
2017-05-21T17:18:23.504Z,101651.34
2017-05-21T17:20:50.313Z,101652.02
2017-05-21T17:23:16.669Z,101646.44
2017-05-21T17:25:43.156Z,101651.50
2017-05-21T17:28:09.531Z,101649.52
2017-05-21T17:30:35.908Z,101648.78
2017-05-21T17:33:02.287Z,101655.16
2017-05-21T17:35:28.659Z,101654.81
2017-05-21T17:37:55.016Z,101652.98
2017-05-21T17:40:21.368Z,101646.73
2017-05-21T17:42:47.733Z,101644.75
2017-05-21T17:45:14.099Z,101651.52
2017-05-21T17:47:40.471Z,101649.89
2017-05-21T17:50:06.859Z,101647.88
2017-05-21T17:52:33.190Z,101643.25
2017-05-21T17:54:59.534Z,101649.01
2017-05-21T17:57:25.988Z,101647.57
2017-05-21T17:59:52.350Z,101644.89
2017-05-21T18:02:18.698Z,101639.91
2017-05-21T18:04:45.112Z,101644.06
2017-05-21T18:07:11.446Z,101640.63
2017-05-21T18:09:37.885Z,101638.09
2017-05-21T18:12:04.292Z,101635.92
2017-05-21T18:14:30.813Z,101639.19
2017-05-21T18:16:57.218Z,101634.89
2017-05-21T18:19:23.611Z,101631.86
2017-05-21T18:21:50.021Z,101637.35
2017-05-21T18:24:16.416Z,101631.66
2017-05-21T18:26:43.116Z,101631.30
2017-05-21T18:29:09.444Z,101633.20
2017-05-21T18:31:35.852Z,101638.23
2017-05-21T18:34:02.195Z,101632.95
2017-05-21T18:36:28.536Z,101627.61
2017-05-21T18:38:54.899Z,101633.19
2017-05-21T18:41:21.302Z,101632.38
2017-05-21T18:43:47.689Z,101627.53
2017-05-21T18:46:14.038Z,101634.95
2017-05-21T18:48:40.451Z,101628.45
2017-05-21T18:51:06.843Z,101630.69
2017-05-21T18:53:33.179Z,101629.67
2017-05-21T18:55:59.555Z,101621.46
2017-05-21T18:58:25.997Z,101621.48
2017-05-21T19:00:52.381Z,101623.39
2017-05-21T19:03:19.322Z,101619.55
2017-05-21T19:05:46.047Z,101613.20
2017-05-21T19:08:12.489Z,101612.64
2017-05-21T19:10:39.109Z,101615.44
2017-05-21T19:13:05.568Z,101618.12
2017-05-21T19:15:31.968Z,101615.39
2017-05-21T19:17:58.512Z,101622.02
2017-05-21T19:20:24.888Z,101621.26
2017-05-21T19:22:52.977Z,101616.25
2017-05-21T19:25:19.858Z,101622.06
2017-05-21T19:27:46.215Z,101618.58
2017-05-21T19:30:12.571Z,101619.50
2017-05-21T19:32:38.940Z,101622.43
2017-05-21T19:35:05.319Z,101617.89
2017-05-21T19:37:31.706Z,101617.34
2017-05-21T19:39:58.045Z,101614.91
2017-05-21T19:42:24.384Z,101614.13
2017-05-21T19:44:50.742Z,101622.64
2017-05-21T19:47:17.096Z,101618.08
2017-05-21T19:49:43.470Z,101617.89
2017-05-21T19:52:09.847Z,101619.47
2017-05-21T19:54:36.252Z,101616.97
2017-05-21T19:57:02.620Z,101616.34
2017-05-21T19:59:29.389Z,101618.98
2017-05-21T20:01:55.733Z,101617.04
2017-05-21T20:04:22.077Z,101618.84
2017-05-21T20:06:48.407Z,101621.26
2017-05-21T20:09:14.739Z,101612.44
2017-05-21T20:11:41.045Z,101613.56
2017-05-21T20:14:07.440Z,101610.28
2017-05-21T20:16:34.219Z,101609.39
2017-05-21T20:19:00.617Z,101611.38
2017-05-21T20:21:27.023Z,101608.06
2017-05-21T20:23:53.422Z,101613.41
2017-05-21T20:26:19.908Z,101603.28
2017-05-21T20:28:46.302Z,101614.64
2017-05-21T20:31:13.235Z,101607.44
2017-05-21T20:33:39.577Z,101598.52
2017-05-21T20:36:05.969Z,101603.80
2017-05-21T20:38:32.333Z,101602.87
2017-05-21T20:40:59.039Z,101600.39
2017-05-21T20:43:25.416Z,101595.56
2017-05-21T20:45:51.808Z,101597.14
2017-05-21T20:48:18.208Z,101599.55
2017-05-21T20:50:45.240Z,101599.23
2017-05-21T20:53:11.570Z,101599.80
2017-05-21T20:55:37.961Z,101604.34
2017-05-21T20:58:04.313Z,101594.67
2017-05-21T21:00:30.684Z,101597.73
2017-05-21T21:02:57.046Z,101596.22
2017-05-21T21:05:23.432Z,101595.25
2017-05-21T21:07:51.108Z,101588.48
2017-05-21T21:10:17.532Z,101591.95
2017-05-21T21:12:43.878Z,101586.27
2017-05-21T21:15:10.689Z,101586.96
2017-05-21T21:17:37.057Z,101584.94
2017-05-21T21:20:03.520Z,101584.01
2017-05-21T21:22:29.910Z,101582.06
2017-05-21T21:24:56.751Z,101579.56
2017-05-21T21:27:23.272Z,101577.18
2017-05-21T21:29:49.635Z,101578.81
2017-05-21T21:32:16.025Z,101576.95
2017-05-21T21:34:42.385Z,101572.94
2017-05-21T21:37:08.740Z,101572.73
2017-05-21T21:39:35.134Z,101578.91
2017-05-21T21:42:01.466Z,101580.34
2017-05-21T21:44:27.814Z,101587.00
2017-05-21T21:46:54.139Z,101586.34
2017-05-21T21:49:20.523Z,101578.10
2017-05-21T21:51:46.873Z,101581.73
2017-05-21T21:54:13.244Z,101581.84
2017-05-21T21:56:39.610Z,101580.88
2017-05-21T21:59:05.964Z,101578.03
2017-05-21T22:01:32.297Z,101578.65
2017-05-21T22:03:58.665Z,101570.08
2017-05-21T22:06:25.619Z,101577.20
2017-05-21T22:08:52.041Z,101585.16
2017-05-21T22:11:18.363Z,101576.08
2017-05-21T22:13:44.706Z,101579.00
2017-05-21T22:16:11.059Z,101580.59
2017-05-21T22:18:37.388Z,101570.70
2017-05-21T22:21:03.948Z,101573.39
2017-05-21T22:23:30.284Z,101575.74
2017-05-21T22:26:00.942Z,101571.69
2017-05-21T22:28:28.085Z,101575.28
2017-05-21T22:30:54.502Z,101577.48
2017-05-21T22:33:20.835Z,101569.70
2017-05-21T22:35:47.193Z,101571.53
2017-05-21T22:38:13.594Z,101573.58
2017-05-21T22:40:39.938Z,101564.70
2017-05-21T22:43:06.271Z,101562.08
2017-05-21T22:45:32.612Z,101560.42
2017-05-21T22:47:59.106Z,101566.28
2017-05-21T22:50:25.923Z,101560.38
2017-05-21T22:52:52.814Z,101558.28
2017-05-21T22:55:19.693Z,101553.17
2017-05-21T22:57:46.519Z,101561.09
2017-05-21T23:00:13.243Z,101561.63
2017-05-21T23:02:40.095Z,101566.19
2017-05-21T23:05:08.421Z,101560.91
2017-05-21T23:07:34.933Z,101561.17
2017-05-21T23:10:01.898Z,101555.17
2017-05-21T23:12:28.428Z,101554.88
2017-05-21T23:14:55.128Z,101549.34
2017-05-21T23:17:21.493Z,101548.27
2017-05-21T23:19:47.858Z,101544.38
2017-05-21T23:22:14.551Z,101545.27
2017-05-21T23:24:41.128Z,101545.28
2017-05-21T23:27:07.491Z,101542.98
2017-05-21T23:29:33.899Z,101542.13
2017-05-21T23:32:00.265Z,101538.30
2017-05-21T23:34:26.638Z,101543.53
2017-05-21T23:36:53.012Z,101544.75
2017-05-21T23:39:19.385Z,101550.71
2017-05-21T23:41:45.742Z,101547.31
2017-05-21T23:44:12.096Z,101547.75
2017-05-21T23:46:38.482Z,101540.01
2017-05-21T23:49:04.842Z,101545.75
2017-05-21T23:51:31.222Z,101539.27
2017-05-21T23:53:57.613Z,101539.88
2017-05-21T23:56:23.982Z,101538.77
2017-05-21T23:58:50.784Z,101532.77
